createdAt,value
2023-03-16T00:02:07.224Z,-2.30
2023-03-16T00:04:37.420Z,-2.20
2023-03-16T00:07:05.867Z,-2.20
2023-03-16T00:09:33.814Z,-2.20
2023-03-16T00:12:03.634Z,-2.20
2023-03-16T00:14:32.613Z,-2.50
2023-03-16T00:17:02.131Z,-2.20
2023-03-16T00:19:29.984Z,-2.30
2023-03-16T00:21:57.812Z,-2.40
2023-03-16T00:24:25.736Z,-2.30
2023-03-16T00:26:54.834Z,-2.00
2023-03-16T00:29:23.507Z,-2.20
2023-03-16T00:31:52.259Z,-2.20
2023-03-16T00:34:22.858Z,-2.30
2023-03-16T00:36:50.859Z,-2.30
2023-03-16T00:39:18.716Z,-2.20
2023-03-16T00:41:46.590Z,-2.30
2023-03-16T00:44:14.443Z,-2.20
2023-03-16T00:46:42.761Z,-2.10
2023-03-16T00:49:10.629Z,-2.00
2023-03-16T00:51:39.860Z,-2.00
2023-03-16T00:54:07.718Z,-1.90
2023-03-16T00:56:35.578Z,-2.00
2023-03-16T00:59:03.457Z,-1.90
2023-03-16T01:01:32.758Z,-1.90
2023-03-16T01:04:01.670Z,-1.90
2023-03-16T01:06:30.237Z,-1.90
2023-03-16T01:08:59.483Z,-1.70
2023-03-16T01:11:27.335Z,-1.80
2023-03-16T01:13:55.261Z,-1.70
2023-03-16T01:16:24.143Z,-1.60
2023-03-16T01:18:52.536Z,-1.60
2023-03-16T01:21:21.600Z,-1.50
2023-03-16T01:23:49.454Z,-1.50
2023-03-16T01:26:18.763Z,-1.70
2023-03-16T01:28:46.751Z,-1.70
2023-03-16T01:31:16.260Z,-1.70
2023-03-16T01:33:44.712Z,-1.80
2023-03-16T01:36:14.654Z,-1.80
2023-03-16T01:38:42.697Z,-1.80
2023-03-16T01:41:11.111Z,-1.80
2023-03-16T01:43:41.570Z,-1.80
2023-03-16T01:46:22.536Z,-1.90
2023-03-16T01:48:56.374Z,-2.00
2023-03-16T01:51:26.885Z,-2.20
2023-03-16T01:53:58.842Z,-2.10
2023-03-16T01:56:30.621Z,-2.10
2023-03-16T01:59:02.663Z,-2.10
2023-03-16T02:01:30.740Z,-2.30
2023-03-16T02:04:03.731Z,-2.20
2023-03-16T02:06:33.090Z,-2.20
2023-03-16T02:09:01.608Z,-2.10
2023-03-16T02:11:29.701Z,-2.20
2023-03-16T02:14:04.217Z,-2.20
2023-03-16T02:16:32.305Z,-2.10
2023-03-16T02:19:00.953Z,-2.10
2023-03-16T02:21:34.809Z,-2.30
2023-03-16T02:24:04.490Z,-2.20
2023-03-16T02:26:39.476Z,-2.30
2023-03-16T02:29:17.919Z,-2.40
2023-03-16T02:31:47.926Z,-2.50
2023-03-16T02:34:18.555Z,-2.40
2023-03-16T02:36:48.061Z,-2.50
2023-03-16T02:39:16.015Z,-2.90
2023-03-16T02:41:44.244Z,-2.60
2023-03-16T02:44:16.427Z,-2.70
2023-03-16T02:46:45.847Z,-2.60
2023-03-16T02:49:18.756Z,-2.70
2023-03-16T02:51:48.098Z,-2.70
2023-03-16T02:54:16.020Z,-2.70
2023-03-16T02:56:43.869Z,-2.70
2023-03-16T02:59:12.077Z,-2.70
2023-03-16T03:01:39.968Z,-2.70
2023-03-16T03:04:08.315Z,-2.60
2023-03-16T03:06:37.543Z,-2.30
2023-03-16T03:09:06.335Z,-2.20
2023-03-16T03:11:34.188Z,-2.10
2023-03-16T03:14:02.040Z,-2.20
2023-03-16T03:16:30.000Z,-2.00
2023-03-16T03:18:58.300Z,-1.70
2023-03-16T03:21:26.472Z,-2.10
2023-03-16T03:23:55.986Z,-1.60
2023-03-16T03:26:24.583Z,-1.50
2023-03-16T03:28:53.466Z,-1.50
2023-03-16T03:31:23.443Z,-1.30
2023-03-16T03:33:51.452Z,-1.30
2023-03-16T03:36:19.328Z,-1.30
2023-03-16T03:38:49.537Z,-1.10
2023-03-16T03:41:18.769Z,-1.20
2023-03-16T03:43:46.650Z,-1.40
2023-03-16T03:46:14.681Z,-1.10
2023-03-16T03:48:42.810Z,-1.10
2023-03-16T03:51:10.748Z,-1.20
2023-03-16T03:53:38.625Z,-1.30
2023-03-16T03:56:07.167Z,-1.20
2023-03-16T03:58:36.642Z,-1.30
2023-03-16T04:01:04.539Z,-1.20
2023-03-16T04:03:32.410Z,-1.30
2023-03-16T04:06:00.890Z,-1.40
2023-03-16T04:08:29.069Z,-1.40
2023-03-16T04:10:56.997Z,-1.30
2023-03-16T04:13:24.871Z,-1.50
2023-03-16T04:15:59.041Z,-1.40
2023-03-16T04:18:27.200Z,-1.60
2023-03-16T04:20:55.274Z,-1.50
2023-03-16T04:23:24.909Z,-1.50
2023-03-16T04:25:52.830Z,-1.40
2023-03-16T04:28:20.726Z,-1.10
2023-03-16T04:30:48.621Z,-1.30
2023-03-16T04:33:17.864Z,-1.20
2023-03-16T04:35:46.363Z,-1.10
2023-03-16T04:38:14.776Z,-1.10
2023-03-16T04:40:42.644Z,-1.00
2023-03-16T04:43:10.505Z,-1.00
2023-03-16T04:45:38.398Z,-0.90
2023-03-16T04:48:06.833Z,-0.80
2023-03-16T04:50:36.140Z,-0.70
2023-03-16T04:53:04.418Z,-0.80
2023-03-16T04:55:32.425Z,-0.80
2023-03-16T04:58:00.349Z,-0.80
2023-03-16T05:00:29.116Z,-0.70
2023-03-16T05:02:57.260Z,-0.70
2023-03-16T05:05:25.313Z,-0.50
2023-03-16T05:07:56.609Z,-0.50
2023-03-16T05:10:24.514Z,-0.30
2023-03-16T05:12:52.334Z,-0.30
2023-03-16T05:15:20.384Z,-0.20
2023-03-16T05:17:48.255Z,0.00
2023-03-16T05:20:16.699Z,0.10
2023-03-16T05:22:46.424Z,0.10
2023-03-16T05:25:16.174Z,0.00
2023-03-16T05:27:44.179Z,0.10
2023-03-16T05:30:13.446Z,0.20
2023-03-16T05:32:41.728Z,0.20
2023-03-16T05:35:13.247Z,0.30
2023-03-16T05:37:41.605Z,0.40
2023-03-16T05:40:17.027Z,0.40
2023-03-16T05:42:47.959Z,0.50
2023-03-16T05:45:17.570Z,0.50
2023-03-16T05:47:45.649Z,0.60
2023-03-16T05:50:16.849Z,0.50
2023-03-16T05:52:45.577Z,0.70
2023-03-16T05:55:18.576Z,0.60
2023-03-16T05:57:47.821Z,0.90
2023-03-16T06:00:18.089Z,0.80
2023-03-16T06:02:47.975Z,0.90
2023-03-16T06:05:16.553Z,0.90
2023-03-16T06:07:44.446Z,0.90
2023-03-16T06:10:13.706Z,1.00
2023-03-16T06:12:42.262Z,1.10
2023-03-16T06:15:12.607Z,1.00
2023-03-16T06:17:41.367Z,1.20
2023-03-16T06:20:11.571Z,1.20
2023-03-16T06:22:39.884Z,1.30
2023-03-16T06:25:09.814Z,1.30
2023-03-16T06:27:38.217Z,1.40
2023-03-16T06:30:07.064Z,1.40
2023-03-16T06:32:37.870Z,1.40
2023-03-16T06:35:06.462Z,1.30
2023-03-16T06:37:34.486Z,1.60
2023-03-16T06:40:02.511Z,1.50
2023-03-16T06:42:30.384Z,1.50
2023-03-16T06:44:58.288Z,1.50
2023-03-16T06:47:27.252Z,1.50
2023-03-16T06:49:56.543Z,1.80
2023-03-16T06:52:24.447Z,1.80
2023-03-16T06:54:52.478Z,2.70
2023-03-16T06:57:20.405Z,1.90
2023-03-16T06:59:48.243Z,2.10
2023-03-16T07:02:16.994Z,2.10
2023-03-16T07:04:45.002Z,3.90
2023-03-16T07:07:14.340Z,2.30
2023-03-16T07:09:42.406Z,2.20
2023-03-16T07:12:10.604Z,2.40
2023-03-16T07:14:38.943Z,2.60
2023-03-16T07:17:07.477Z,2.60
2023-03-16T07:19:35.364Z,2.70
2023-03-16T07:22:03.929Z,2.80
2023-03-16T07:24:33.493Z,2.80
2023-03-16T07:27:01.820Z,2.90
2023-03-16T07:29:29.718Z,2.90
2023-03-16T07:31:57.647Z,2.90
2023-03-16T07:34:25.505Z,3.00
2023-03-16T07:36:53.540Z,3.30
2023-03-16T07:39:21.474Z,3.40
2023-03-16T07:41:51.260Z,3.50
2023-03-16T07:44:19.250Z,3.40
2023-03-16T07:46:47.155Z,3.90
2023-03-16T07:49:16.670Z,3.80
2023-03-16T07:51:44.593Z,3.90
2023-03-16T07:54:13.893Z,4.00
2023-03-16T07:56:48.971Z,4.80
2023-03-16T07:59:20.868Z,4.20
2023-03-16T08:01:49.228Z,4.30
2023-03-16T08:04:17.081Z,4.40
2023-03-16T08:06:45.383Z,4.30
2023-03-16T08:09:14.377Z,4.50
2023-03-16T08:11:42.751Z,4.60
2023-03-16T08:14:10.660Z,5.30
2023-03-16T08:16:39.897Z,4.70
2023-03-16T08:19:07.778Z,5.00
2023-03-16T08:21:45.792Z,5.20
2023-03-16T08:24:24.031Z,5.00
2023-03-16T08:26:51.924Z,5.10
2023-03-16T08:29:21.101Z,5.00
2023-03-16T08:31:50.388Z,5.80
2023-03-16T08:34:18.739Z,5.90
2023-03-16T08:36:46.693Z,6.00
2023-03-16T08:39:15.554Z,5.80
2023-03-16T08:41:43.593Z,6.00
2023-03-16T08:44:12.882Z,6.10
2023-03-16T08:46:42.269Z,6.10
2023-03-16T08:49:13.549Z,6.30
2023-03-16T08:51:43.876Z,6.60
2023-03-16T08:54:12.839Z,6.60
2023-03-16T08:56:44.896Z,6.70
2023-03-16T08:59:23.602Z,6.80
2023-03-16T09:01:57.113Z,7.00
2023-03-16T09:04:26.552Z,7.20
2023-03-16T09:07:07.825Z,7.30
2023-03-16T09:09:36.722Z,7.40
2023-03-16T09:12:05.855Z,7.70
2023-03-16T09:14:34.323Z,7.80
2023-03-16T09:17:02.201Z,8.00
2023-03-16T09:19:47.847Z,8.10
2023-03-16T09:22:18.439Z,8.30
2023-03-16T09:24:46.452Z,8.60
2023-03-16T09:27:16.310Z,8.80
2023-03-16T09:29:45.265Z,9.00
2023-03-16T09:32:14.177Z,9.20
2023-03-16T09:34:44.730Z,9.00
2023-03-16T09:37:12.725Z,9.00
2023-03-16T09:39:40.610Z,9.00
2023-03-16T09:42:19.715Z,8.90
2023-03-16T09:44:57.596Z,9.10
2023-03-16T09:47:28.789Z,9.30
2023-03-16T09:50:01.335Z,9.50
2023-03-16T09:52:41.257Z,9.60
2023-03-16T09:55:17.508Z,9.10
2023-03-16T09:57:47.365Z,9.10
2023-03-16T10:00:21.113Z,9.90
2023-03-16T10:03:11.048Z,9.40
2023-03-16T10:05:40.911Z,9.50
2023-03-16T10:08:14.231Z,9.60
2023-03-16T10:11:07.272Z,9.70
2023-03-16T10:13:41.579Z,9.70
2023-03-16T10:16:14.923Z,9.80
2023-03-16T10:18:45.942Z,9.90
2023-03-16T10:21:18.398Z,10.00
2023-03-16T10:23:48.558Z,10.00
2023-03-16T10:26:19.739Z,10.20
2023-03-16T10:28:47.944Z,10.80
2023-03-16T10:31:19.414Z,10.30
2023-03-16T10:33:49.464Z,10.50
2023-03-16T10:36:27.150Z,10.50
2023-03-16T10:38:58.760Z,10.60
2023-03-16T10:41:30.640Z,10.70
2023-03-16T10:43:59.789Z,10.60
2023-03-16T10:46:29.556Z,10.60
2023-03-16T10:49:01.157Z,10.60
2023-03-16T10:51:32.087Z,10.50
2023-03-16T10:54:10.795Z,10.40
2023-03-16T10:56:40.242Z,10.30
2023-03-16T10:59:17.088Z,10.40
2023-03-16T11:01:49.977Z,10.30
2023-03-16T11:04:20.385Z,10.70
2023-03-16T11:06:56.904Z,10.50
2023-03-16T11:09:27.774Z,10.60
2023-03-16T11:11:55.736Z,10.50
2023-03-16T11:14:28.387Z,10.50
2023-03-16T11:17:04.295Z,10.30
2023-03-16T11:19:34.763Z,10.70
2023-03-16T11:22:11.907Z,10.50
2023-03-16T11:24:47.727Z,10.60
2023-03-16T11:27:23.768Z,10.50
2023-03-16T11:30:15.823Z,10.30
2023-03-16T11:32:49.060Z,10.50
2023-03-16T11:35:20.541Z,10.20
2023-03-16T11:38:06.229Z,10.40
2023-03-16T11:40:45.323Z,10.30
2023-03-16T11:43:50.140Z,10.40
2023-03-16T11:46:22.620Z,10.50
2023-03-16T11:49:17.629Z,10.30
2023-03-16T11:51:53.968Z,10.30
2023-03-16T11:54:41.400Z,10.10
2023-03-16T11:57:23.642Z,10.40
2023-03-16T12:00:06.866Z,10.30
2023-03-16T12:02:45.934Z,10.90
2023-03-16T12:05:56.475Z,10.80
2023-03-16T12:08:40.097Z,10.90
2023-03-16T12:11:14.787Z,10.90
2023-03-16T12:13:58.367Z,10.90
2023-03-16T12:16:39.074Z,10.90
2023-03-16T12:19:21.883Z,10.90
2023-03-16T12:22:02.287Z,10.90
2023-03-16T12:24:36.418Z,11.10
2023-03-16T12:27:06.996Z,11.00
2023-03-16T12:29:41.420Z,11.10
2023-03-16T12:32:13.403Z,10.90
2023-03-16T12:34:45.724Z,11.20
2023-03-16T12:37:29.135Z,11.30
2023-03-16T12:40:19.598Z,11.60
2023-03-16T12:43:11.002Z,11.50
2023-03-16T12:45:44.473Z,11.30
2023-03-16T12:48:21.804Z,11.40
2023-03-16T12:50:52.200Z,11.20
2023-03-16T12:53:28.447Z,11.00
2023-03-16T12:55:57.953Z,11.10
2023-03-16T12:58:28.624Z,11.30
2023-03-16T13:00:59.529Z,11.30
2023-03-16T13:03:28.431Z,11.20
2023-03-16T13:05:59.476Z,11.40
2023-03-16T13:08:28.901Z,11.10
2023-03-16T13:11:04.985Z,11.30
2023-03-16T13:13:34.724Z,11.30
2023-03-16T13:16:07.175Z,10.90
2023-03-16T13:18:39.127Z,11.00
2023-03-16T13:21:35.800Z,11.00
2023-03-16T13:24:15.848Z,10.90
2023-03-16T13:26:48.446Z,10.90
2023-03-16T13:29:25.567Z,10.90
2023-03-16T13:31:54.568Z,10.80
2023-03-16T13:34:25.271Z,10.90
2023-03-16T13:36:57.863Z,10.70
2023-03-16T13:39:28.415Z,10.40
2023-03-16T13:42:01.001Z,10.70
2023-03-16T13:44:31.867Z,10.80
2023-03-16T13:47:04.993Z,10.80
2023-03-16T13:49:32.977Z,10.70
2023-03-16T13:52:01.044Z,11.40
2023-03-16T13:54:30.733Z,10.70
2023-03-16T13:57:00.487Z,10.70
2023-03-16T13:59:30.278Z,10.70
2023-03-16T14:02:00.031Z,10.70
2023-03-16T14:04:30.675Z,10.70
2023-03-16T14:07:01.801Z,10.70
2023-03-16T14:09:34.446Z,10.80
2023-03-16T14:12:03.572Z,10.70
2023-03-16T14:14:39.282Z,10.70
2023-03-16T14:17:12.313Z,10.80
2023-03-16T14:19:44.419Z,10.60
2023-03-16T14:22:16.342Z,11.10
2023-03-16T14:24:46.808Z,10.50
2023-03-16T14:27:21.734Z,10.10
2023-03-16T14:29:57.516Z,10.40
2023-03-16T14:32:29.317Z,10.30
2023-03-16T14:35:15.087Z,10.30
2023-03-16T14:37:43.642Z,10.30
2023-03-16T14:40:24.616Z,10.30
2023-03-16T14:42:54.089Z,10.20
2023-03-16T14:45:23.782Z,10.20
2023-03-16T14:47:53.723Z,10.20
2023-03-16T14:50:25.094Z,10.00
2023-03-16T14:52:57.210Z,10.20
2023-03-16T14:55:25.688Z,10.40
2023-03-16T14:57:54.077Z,10.30
2023-03-16T15:00:23.993Z,10.40
2023-03-16T15:03:00.177Z,10.50
2023-03-16T15:05:35.206Z,10.50
2023-03-16T15:08:05.561Z,10.20
2023-03-16T15:10:35.786Z,10.50
2023-03-16T15:13:13.087Z,10.20
2023-03-16T15:15:43.868Z,10.30
2023-03-16T15:18:12.079Z,10.00
2023-03-16T15:20:43.459Z,10.20
2023-03-16T15:23:14.987Z,10.20
2023-03-16T15:25:45.029Z,10.10
2023-03-16T15:28:17.283Z,10.10
2023-03-16T15:30:48.677Z,10.00
2023-03-16T15:33:17.045Z,10.00
2023-03-16T15:35:46.728Z,10.00
2023-03-16T15:38:17.972Z,9.90
2023-03-16T15:40:47.947Z,10.10
2023-03-16T15:43:17.955Z,9.70
2023-03-16T15:45:48.158Z,10.00
2023-03-16T15:48:17.060Z,10.10
2023-03-16T15:50:52.729Z,9.90
2023-03-16T15:53:30.633Z,9.80
2023-03-16T15:56:03.070Z,9.80
2023-03-16T15:58:33.111Z,9.90
2023-03-16T16:01:03.682Z,9.60
2023-03-16T16:03:32.177Z,9.70
2023-03-16T16:06:00.298Z,9.50
2023-03-16T16:08:28.409Z,9.60
2023-03-16T16:10:57.321Z,9.50
2023-03-16T16:13:37.757Z,9.50
2023-03-16T16:16:14.419Z,9.50
2023-03-16T16:18:42.851Z,9.40
2023-03-16T16:21:17.761Z,9.40
2023-03-16T16:23:45.775Z,9.30
2023-03-16T16:26:26.284Z,9.80
2023-03-16T16:28:55.909Z,9.30
2023-03-16T16:31:25.609Z,9.30
2023-03-16T16:33:53.885Z,9.20
2023-03-16T16:36:25.176Z,9.00
2023-03-16T16:38:56.340Z,8.70
2023-03-16T16:41:27.953Z,9.00
2023-03-16T16:43:56.445Z,8.90
2023-03-16T16:46:27.403Z,8.70
2023-03-16T16:48:59.572Z,8.80
2023-03-16T16:51:29.662Z,8.70
2023-03-16T16:53:59.410Z,8.70
2023-03-16T16:56:30.688Z,8.40
2023-03-16T16:59:00.430Z,8.60
2023-03-16T17:01:32.897Z,8.30
2023-03-16T17:04:01.243Z,9.10
2023-03-16T17:06:29.786Z,8.40
2023-03-16T17:08:57.686Z,8.10
2023-03-16T17:11:29.083Z,8.10
2023-03-16T17:13:59.223Z,8.00
2023-03-16T17:16:27.741Z,7.90
2023-03-16T17:18:57.461Z,8.00
2023-03-16T17:21:28.482Z,8.00
2023-03-16T17:23:57.321Z,7.70
2023-03-16T17:26:28.803Z,7.80
2023-03-16T17:28:59.089Z,7.80
2023-03-16T17:31:31.055Z,7.70
2023-03-16T17:34:02.298Z,7.70
2023-03-16T17:36:31.293Z,7.70
2023-03-16T17:39:02.003Z,7.70
2023-03-16T17:41:32.948Z,7.60
2023-03-16T17:44:11.980Z,7.60
2023-03-16T17:46:39.937Z,7.40
2023-03-16T17:49:14.217Z,7.60
2023-03-16T17:51:43.360Z,7.60
2023-03-16T17:54:11.712Z,7.50
2023-03-16T17:56:40.650Z,7.50
2023-03-16T17:59:16.295Z,7.40
2023-03-16T18:01:45.769Z,7.50
2023-03-16T18:04:19.308Z,7.20
2023-03-16T18:06:48.125Z,7.30
2023-03-16T18:09:16.819Z,7.30
2023-03-16T18:11:47.592Z,7.70
2023-03-16T18:14:25.267Z,7.20
2023-03-16T18:16:54.472Z,7.20
2023-03-16T18:19:25.653Z,7.00
2023-03-16T18:21:54.570Z,6.90
2023-03-16T18:24:25.687Z,6.90
2023-03-16T18:26:53.785Z,6.90
2023-03-16T18:29:22.373Z,6.90
2023-03-16T18:31:51.787Z,6.90
2023-03-16T18:34:24.693Z,6.90
2023-03-16T18:36:54.830Z,6.80
2023-03-16T18:39:23.285Z,6.80
2023-03-16T18:41:51.256Z,6.80
2023-03-16T18:44:21.227Z,6.70
2023-03-16T18:46:50.498Z,6.60
2023-03-16T18:49:21.084Z,6.50
2023-03-16T18:51:52.280Z,6.40
2023-03-16T18:54:22.167Z,6.40
2023-03-16T18:56:50.071Z,6.40
2023-03-16T18:59:18.182Z,6.30
2023-03-16T19:01:47.154Z,6.50
2023-03-16T19:04:21.423Z,6.60
2023-03-16T19:06:53.619Z,6.40
2023-03-16T19:09:23.749Z,6.40
2023-03-16T19:11:52.087Z,6.40
2023-03-16T19:14:24.057Z,6.40
2023-03-16T19:16:52.555Z,6.70
2023-03-16T19:19:21.925Z,6.40
2023-03-16T19:21:53.758Z,6.40
2023-03-16T19:24:26.464Z,6.20
2023-03-16T19:26:55.503Z,6.30
2023-03-16T19:29:30.816Z,7.00
2023-03-16T19:34:43.964Z,6.30
2023-03-16T19:37:15.850Z,6.30
2023-03-16T19:39:44.990Z,6.40
2023-03-16T19:42:22.198Z,6.40
2023-03-16T19:44:51.734Z,6.40
2023-03-16T19:47:29.503Z,6.50
2023-03-16T19:49:58.597Z,6.40
2023-03-16T19:52:31.309Z,6.50
2023-03-16T19:54:59.596Z,6.70
2023-03-16T19:57:29.095Z,6.60
2023-03-16T19:59:58.466Z,6.70
2023-03-16T20:02:28.482Z,6.70
2023-03-16T20:04:56.719Z,7.20
2023-03-16T20:07:24.900Z,6.70
2023-03-16T20:09:54.174Z,6.80
2023-03-16T20:12:24.876Z,6.80
2023-03-16T20:14:53.750Z,6.60
2023-03-16T20:17:23.842Z,6.80
2023-03-16T20:19:53.002Z,6.80
2023-03-16T20:22:23.432Z,6.80
2023-03-16T20:24:51.355Z,6.80
2023-03-16T20:27:21.522Z,6.80
2023-03-16T20:29:50.526Z,6.60
2023-03-16T20:32:21.859Z,6.80
2023-03-16T20:34:51.133Z,6.70
2023-03-16T20:37:24.654Z,6.60
2023-03-16T20:39:53.758Z,6.70
2023-03-16T20:42:25.807Z,6.70
2023-03-16T20:44:53.869Z,6.70
2023-03-16T20:47:24.404Z,6.70
2023-03-16T20:49:53.767Z,6.70
2023-03-16T20:52:24.028Z,6.70
2023-03-16T20:54:52.410Z,6.70
2023-03-16T20:57:23.750Z,6.70
2023-03-16T20:59:54.565Z,6.70
2023-03-16T21:02:28.145Z,6.70
2023-03-16T21:04:56.507Z,6.60
2023-03-16T21:07:24.470Z,6.60
2023-03-16T21:09:52.490Z,7.00
2023-03-16T21:12:27.897Z,7.30
2023-03-16T21:14:57.129Z,6.40
2023-03-16T21:17:34.339Z,6.50
2023-03-16T21:20:02.313Z,6.40
2023-03-16T21:22:32.177Z,6.40
2023-03-16T21:25:00.371Z,6.60
2023-03-16T21:27:31.956Z,6.30
2023-03-16T21:30:04.108Z,6.40
2023-03-16T21:32:32.098Z,6.40
2023-03-16T21:35:00.124Z,6.70
2023-03-16T21:37:28.342Z,6.50
2023-03-16T21:39:56.459Z,6.40
2023-03-16T21:42:24.363Z,6.50
2023-03-16T21:44:53.612Z,6.50
2023-03-16T21:47:26.124Z,6.50
2023-03-16T21:49:54.750Z,6.50
2023-03-16T21:52:25.252Z,6.50
2023-03-16T21:54:53.707Z,6.60
2023-03-16T21:57:21.773Z,6.60
2023-03-16T21:59:50.191Z,6.40
2023-03-16T22:02:22.554Z,6.60
2023-03-16T22:04:51.020Z,6.60
2023-03-16T22:07:19.444Z,6.60
2023-03-16T22:09:47.354Z,6.60
2023-03-16T22:12:15.780Z,6.60
2023-03-16T22:14:43.704Z,7.00
2023-03-16T22:17:22.613Z,6.60
2023-03-16T22:19:50.539Z,6.50
2023-03-16T22:22:18.918Z,6.50
2023-03-16T22:24:47.426Z,6.50
2023-03-16T22:27:19.019Z,6.50
2023-03-16T22:29:46.979Z,6.50
2023-03-16T22:32:19.056Z,6.90
2023-03-16T22:34:50.359Z,6.60
2023-03-16T22:37:21.364Z,6.60
2023-03-16T22:39:49.821Z,6.60
2023-03-16T22:42:26.299Z,6.60
2023-03-16T22:44:54.640Z,6.60
2023-03-16T22:47:23.230Z,6.60
2023-03-16T22:49:53.655Z,6.80
2023-03-16T22:52:25.978Z,6.60
2023-03-16T22:54:54.081Z,6.90
2023-03-16T22:57:22.000Z,6.60
2023-03-16T22:59:51.257Z,7.40
2023-03-16T23:02:22.135Z,6.50
2023-03-16T23:04:50.033Z,6.40
2023-03-16T23:07:19.638Z,6.40
2023-03-16T23:09:49.287Z,6.50
2023-03-16T23:12:20.697Z,6.40
2023-03-16T23:14:48.785Z,7.10
2023-03-16T23:17:18.647Z,6.40
2023-03-16T23:19:47.858Z,6.40
2023-03-16T23:22:16.264Z,6.30
2023-03-16T23:24:45.680Z,6.30
2023-03-16T23:27:18.337Z,6.20
2023-03-16T23:29:46.575Z,6.20
2023-03-16T23:32:15.681Z,6.30
2023-03-16T23:34:43.584Z,6.30
2023-03-16T23:37:11.938Z,6.00
2023-03-16T23:39:39.823Z,6.20
2023-03-16T23:42:09.528Z,6.10
2023-03-16T23:44:37.471Z,6.10
2023-03-16T23:47:05.446Z,6.60
2023-03-16T23:49:37.302Z,6.00
2023-03-16T23:52:05.562Z,6.00
2023-03-16T23:54:33.915Z,6.00
2023-03-16T23:57:02.046Z,6.00
2023-03-16T23:59:31.333Z,5.90
